sensor_id;sensor_type;location;lat;lon;timestamp;pressure;altitude;pressure_sealevel;temperature;humidity
2188;BME280;1100;52.014;8.540;2023-02-23T00:01:25;99803.50;;;6.24;99.16
2188;BME280;1100;52.014;8.540;2023-02-23T00:03:54;99800.75;;;6.24;99.53
2188;BME280;1100;52.014;8.540;2023-02-23T00:06:20;99805.44;;;6.27;99.50
2188;BME280;1100;52.014;8.540;2023-02-23T00:08:46;99795.53;;;6.30;99.54
2188;BME280;1100;52.014;8.540;2023-02-23T00:11:16;99803.38;;;6.31;99.31
2188;BME280;1100;52.014;8.540;2023-02-23T00:13:43;99800.22;;;6.33;99.45
2188;BME280;1100;52.014;8.540;2023-02-23T00:16:12;99799.78;;;6.34;99.42
2188;BME280;1100;52.014;8.540;2023-02-23T00:18:47;99803.75;;;6.33;99.47
2188;BME280;1100;52.014;8.540;2023-02-23T00:21:17;99796.66;;;6.32;99.36
2188;BME280;1100;52.014;8.540;2023-02-23T00:23:50;99796.66;;;6.32;99.47
2188;BME280;1100;52.014;8.540;2023-02-23T00:26:17;99798.59;;;6.35;99.43
2188;BME280;1100;52.014;8.540;2023-02-23T00:28:45;99794.28;;;6.34;99.22
2188;BME280;1100;52.014;8.540;2023-02-23T00:31:11;99793.06;;;6.35;99.19
2188;BME280;1100;52.014;8.540;2023-02-23T00:33:37;99793.84;;;6.36;99.43
2188;BME280;1100;52.014;8.540;2023-02-23T00:36:08;99789.53;;;6.35;99.16
2188;BME280;1100;52.014;8.540;2023-02-23T00:38:35;99792.72;;;6.33;99.13
2188;BME280;1100;52.014;8.540;2023-02-23T00:41:09;99782.09;;;6.32;99.17
2188;BME280;1100;52.014;8.540;2023-02-23T00:43:36;99783.69;;;6.29;99.12
2188;BME280;1100;52.014;8.540;2023-02-23T00:46:04;99791.22;;;6.29;99.35
2188;BME280;1100;52.014;8.540;2023-02-23T00:48:33;99791.97;;;6.29;99.20
2188;BME280;1100;52.014;8.540;2023-02-23T00:51:01;99794.72;;;6.29;99.19
2188;BME280;1100;52.014;8.540;2023-02-23T00:53:26;99788.78;;;6.31;99.45
2188;BME280;1100;52.014;8.540;2023-02-23T00:55:53;99789.16;;;6.33;99.61
2188;BME280;1100;52.014;8.540;2023-02-23T00:58:18;99799.78;;;6.34;99.43
2188;BME280;1100;52.014;8.540;2023-02-23T01:00:43;99791.09;;;6.36;99.40
2188;BME280;1100;52.014;8.540;2023-02-23T01:03:09;99793.44;;;6.38;99.69
2188;BME280;1100;52.014;8.540;2023-02-23T01:05:34;99797.00;;;6.38;99.38
2188;BME280;1100;52.014;8.540;2023-02-23T01:07:59;99804.06;;;6.39;99.61
2188;BME280;1100;52.014;8.540;2023-02-23T01:10:25;99798.91;;;6.41;100.00
2188;BME280;1100;52.014;8.540;2023-02-23T01:12:51;99804.03;;;6.43;99.60
2188;BME280;1100;52.014;8.540;2023-02-23T01:15:17;99800.78;;;6.48;99.56
2188;BME280;1100;52.014;8.540;2023-02-23T01:17:43;99803.91;;;6.50;99.72
2188;BME280;1100;52.014;8.540;2023-02-23T01:20:14;99803.47;;;6.52;99.53
2188;BME280;1100;52.014;8.540;2023-02-23T01:22:48;99803.06;;;6.53;99.68
2188;BME280;1100;52.014;8.540;2023-02-23T01:25:15;99804.63;;;6.54;99.45
2188;BME280;1100;52.014;8.540;2023-02-23T01:27:41;99801.84;;;6.54;99.64
2188;BME280;1100;52.014;8.540;2023-02-23T01:30:09;99804.19;;;6.56;99.64
2188;BME280;1100;52.014;8.540;2023-02-23T01:32:36;99801.84;;;6.54;99.56
2188;BME280;1100;52.014;8.540;2023-02-23T01:35:09;99804.56;;;6.58;99.75
2188;BME280;1100;52.014;8.540;2023-02-23T01:37:38;99808.47;;;6.60;99.73
2188;BME280;1100;52.014;8.540;2023-02-23T01:42:39;99809.25;;;6.61;99.55
2188;BME280;1100;52.014;8.540;2023-02-23T01:47:55;99810.03;;;6.62;99.65
2188;BME280;1100;52.014;8.540;2023-02-23T01:50:24;99804.53;;;6.62;99.80
2188;BME280;1100;52.014;8.540;2023-02-23T01:52:51;99802.94;;;6.60;99.87
2188;BME280;1100;52.014;8.540;2023-02-23T01:55:18;99810.03;;;6.62;99.62
2188;BME280;1100;52.014;8.540;2023-02-23T01:57:50;99809.25;;;6.61;99.60
2188;BME280;1100;52.014;8.540;2023-02-23T02:00:18;99810.03;;;6.62;99.59
2188;BME280;1100;52.014;8.540;2023-02-23T02:02:44;99811.59;;;6.63;99.92
2188;BME280;1100;52.014;8.540;2023-02-23T02:05:14;99815.09;;;6.67;99.80
2188;BME280;1100;52.014;8.540;2023-02-23T02:07:45;99809.94;;;6.69;99.78
2188;BME280;1100;52.014;8.540;2023-02-23T02:10:11;99808.75;;;6.70;99.83
2188;BME280;1100;52.014;8.540;2023-02-23T02:12:55;99810.28;;;6.71;99.81
2188;BME280;1100;52.014;8.540;2023-02-23T02:15:25;99801.59;;;6.72;99.57
2188;BME280;1100;52.014;8.540;2023-02-23T02:18:03;99796.44;;;6.75;99.80
2188;BME280;1100;52.014;8.540;2023-02-23T02:20:56;99799.97;;;6.75;99.73
2188;BME280;1100;52.014;8.540;2023-02-23T02:26:17;99794.09;;;6.73;99.62
2188;BME280;1100;52.014;8.540;2023-02-23T02:29:10;99797.69;;;6.70;99.58
2188;BME280;1100;52.014;8.540;2023-02-23T02:37:45;99790.97;;;6.71;99.73
2188;BME280;1100;52.014;8.540;2023-02-23T02:40:42;99798.88;;;6.69;99.60
2188;BME280;1100;52.014;8.540;2023-02-23T02:46:14;99788.56;;;6.73;100.00
2188;BME280;1100;52.014;8.540;2023-02-23T02:51:47;99787.34;;;6.74;99.65
2188;BME280;1100;52.014;8.540;2023-02-23T02:56:56;99790.50;;;6.76;99.88
2188;BME280;1100;52.014;8.540;2023-02-23T02:59:25;99790.91;;;6.75;99.72
2188;BME280;1100;52.014;8.540;2023-02-23T03:02:15;99788.50;;;6.77;99.65
2188;BME280;1100;52.014;8.540;2023-02-23T03:04:59;99782.53;;;6.78;99.69
2188;BME280;1100;52.014;8.540;2023-02-23T03:10:42;99788.06;;;6.78;99.72
2188;BME280;1100;52.014;8.540;2023-02-23T03:17:08;99784.59;;;6.74;99.67
2188;BME280;1100;52.014;8.540;2023-02-23T03:26:29;99786.22;;;6.71;99.67
2188;BME280;1100;52.014;8.540;2023-02-23T03:29:21;99781.53;;;6.68;99.84
2188;BME280;1100;52.014;8.540;2023-02-23T03:35:16;99793.41;;;6.65;99.72
2188;BME280;1100;52.014;8.540;2023-02-23T03:41:14;99791.06;;;6.64;99.93
2188;BME280;1100;52.014;8.540;2023-02-23T03:44:16;99791.47;;;6.62;99.71
2188;BME280;1100;52.014;8.540;2023-02-23T03:47:02;99790.28;;;6.63;99.67
2188;BME280;1100;52.014;8.540;2023-02-23T03:49:49;99787.97;;;6.62;99.77
2188;BME280;1100;52.014;8.540;2023-02-23T03:52:41;99792.28;;;6.63;99.74
2188;BME280;1100;52.014;8.540;2023-02-23T03:55:31;99793.47;;;6.62;99.57
2188;BME280;1100;52.014;8.540;2023-02-23T03:58:22;99793.47;;;6.62;99.66
2188;BME280;1100;52.014;8.540;2023-02-23T04:01:09;99797.41;;;6.60;100.00
2188;BME280;1100;52.014;8.540;2023-02-23T04:03:55;99794.31;;;6.58;99.80
2188;BME280;1100;52.014;8.540;2023-02-23T04:06:43;99789.97;;;6.57;100.00
2188;BME280;1100;52.014;8.540;2023-02-23T04:09:29;99799.47;;;6.56;99.67
2188;BME280;1100;52.014;8.540;2023-02-23T04:15:13;99792.38;;;6.55;99.65
2188;BME280;1100;52.014;8.540;2023-02-23T04:17:40;99788.88;;;6.51;99.94
2188;BME280;1100;52.014;8.540;2023-02-23T04:20:08;99795.63;;;6.50;99.67
2188;BME280;1100;52.014;8.540;2023-02-23T04:22:34;99797.16;;;6.51;99.75
2188;BME280;1100;52.014;8.540;2023-02-23T04:25:00;99791.31;;;6.49;99.57
2188;BME280;1100;52.014;8.540;2023-02-23T04:27:25;99799.59;;;6.49;99.77
2188;BME280;1100;52.014;8.540;2023-02-23T04:29:50;99800.00;;;6.47;99.47
2188;BME280;1100;52.014;8.540;2023-02-23T04:32:18;99800.44;;;6.46;99.61
2188;BME280;1100;52.014;8.540;2023-02-23T04:34:45;99792.13;;;6.46;99.72
2188;BME280;1100;52.014;8.540;2023-02-23T04:37:10;99796.50;;;6.43;99.83
2188;BME280;1100;52.014;8.540;2023-02-23T04:39:36;99797.72;;;6.42;99.88
2188;BME280;1100;52.014;8.540;2023-02-23T04:42:02;99799.34;;;6.40;99.80
2188;BME280;1100;52.014;8.540;2023-02-23T04:44:27;99795.38;;;6.41;99.87
2188;BME280;1100;52.014;8.540;2023-02-23T04:46:52;99793.81;;;6.40;99.63
2188;BME280;1100;52.014;8.540;2023-02-23T04:49:18;99792.66;;;6.37;99.80
2188;BME280;1100;52.014;8.540;2023-02-23T04:51:43;99785.56;;;6.36;99.61
2188;BME280;1100;52.014;8.540;2023-02-23T04:54:08;99798.59;;;6.35;99.65
2188;BME280;1100;52.014;8.540;2023-02-23T04:56:33;99797.03;;;6.34;99.85
2188;BME280;1100;52.014;8.540;2023-02-23T04:58:59;99794.69;;;6.33;99.41
2188;BME280;1100;52.014;8.540;2023-02-23T05:01:24;99789.59;;;6.31;99.82
2188;BME280;1100;52.014;8.540;2023-02-23T05:03:51;99792.34;;;6.31;99.58
2188;BME280;1100;52.014;8.540;2023-02-23T05:06:17;99790.38;;;6.32;99.62
2188;BME280;1100;52.014;8.540;2023-02-23T05:08:42;99781.72;;;6.30;99.65
2188;BME280;1100;52.014;8.540;2023-02-23T05:11:08;99779.75;;;6.30;99.61
2188;BME280;1100;52.014;8.540;2023-02-23T05:13:34;99788.44;;;6.29;99.79
2188;BME280;1100;52.014;8.540;2023-02-23T05:16:00;99786.88;;;6.28;99.77
2188;BME280;1100;52.014;8.540;2023-02-23T05:18:25;99790.03;;;6.26;99.63
2188;BME280;1100;52.014;8.540;2023-02-23T05:20:52;99789.69;;;6.24;99.85
2188;BME280;1100;52.014;8.540;2023-02-23T05:23:18;99788.88;;;6.27;99.74
2188;BME280;1100;52.014;8.540;2023-02-23T05:25:44;99788.06;;;6.27;99.83
2188;BME280;1100;52.014;8.540;2023-02-23T05:28:09;99790.41;;;6.28;99.99
2188;BME280;1100;52.014;8.540;2023-02-23T05:30:35;99793.19;;;6.28;100.00
2188;BME280;1100;52.014;8.540;2023-02-23T05:33:00;99788.88;;;6.27;99.83
2188;BME280;1100;52.014;8.540;2023-02-23T05:35:26;99793.56;;;6.30;99.83
2188;BME280;1100;52.014;8.540;2023-02-23T05:37:51;99793.13;;;6.32;99.87
2188;BME280;1100;52.014;8.540;2023-02-23T05:40:17;99797.50;;;6.29;99.72
2188;BME280;1100;52.014;8.540;2023-02-23T05:42:42;99795.94;;;6.28;99.97
2188;BME280;1100;52.014;8.540;2023-02-23T05:45:07;99797.56;;;6.26;99.92
2188;BME280;1100;52.014;8.540;2023-02-23T05:47:33;99796.34;;;6.27;99.65
2188;BME280;1100;52.014;8.540;2023-02-23T05:50:04;99799.13;;;6.27;100.00
2188;BME280;1100;52.014;8.540;2023-02-23T05:52:30;99795.56;;;6.26;99.94
2188;BME280;1100;52.014;8.540;2023-02-23T05:54:55;99797.16;;;6.27;100.00
2188;BME280;1100;52.014;8.540;2023-02-23T05:57:20;99797.50;;;6.29;99.74
2188;BME280;1100;52.014;8.540;2023-02-23T05:59:46;99801.47;;;6.28;99.95
2188;BME280;1100;52.014;8.540;2023-02-23T06:02:11;99800.25;;;6.29;100.00
2188;BME280;1100;52.014;8.540;2023-02-23T06:04:36;99808.13;;;6.31;99.85
2188;BME280;1100;52.014;8.540;2023-02-23T06:07:02;99809.31;;;6.30;100.00
2188;BME280;1100;52.014;8.540;2023-02-23T06:09:27;99810.53;;;6.29;100.00
2188;BME280;1100;52.014;8.540;2023-02-23T06:11:52;99804.22;;;6.28;99.81
2188;BME280;1100;52.014;8.540;2023-02-23T06:14:18;99812.50;;;6.28;100.00
2188;BME280;1100;52.014;8.540;2023-02-23T06:16:43;99813.28;;;6.29;99.93
2188;BME280;1100;52.014;8.540;2023-02-23T06:19:10;99819.94;;;6.31;100.00
2188;BME280;1100;52.014;8.540;2023-02-23T06:21:35;99818.41;;;6.30;99.93
2188;BME280;1100;52.014;8.540;2023-02-23T06:24:00;99808.91;;;6.31;100.00
2188;BME280;1100;52.014;8.540;2023-02-23T06:26:27;99820.75;;;6.32;99.92
2188;BME280;1100;52.014;8.540;2023-02-23T06:28:52;99825.84;;;6.33;99.92
2188;BME280;1100;52.014;8.540;2023-02-23T06:31:17;99816.34;;;6.34;100.00
2188;BME280;1100;52.014;8.540;2023-02-23T06:33:42;99824.66;;;6.34;99.95
2188;BME280;1100;52.014;8.540;2023-02-23T06:36:08;99823.03;;;6.37;100.00
2188;BME280;1100;52.014;8.540;2023-02-23T06:38:34;99826.16;;;6.39;100.00
2188;BME280;1100;52.014;8.540;2023-02-23T06:41:06;99838.75;;;6.40;100.00
2188;BME280;1100;52.014;8.540;2023-02-23T06:43:34;99829.72;;;6.40;100.00
2188;BME280;1100;52.014;8.540;2023-02-23T06:46:00;99831.69;;;6.39;99.82
2188;BME280;1100;52.014;8.540;2023-02-23T06:48:28;99841.94;;;6.39;99.99
2188;BME280;1100;52.014;8.540;2023-02-23T06:50:53;99838.75;;;6.40;100.00
2188;BME280;1100;52.014;8.540;2023-02-23T06:53:19;99838.75;;;6.40;100.00
2188;BME280;1100;52.014;8.540;2023-02-23T06:55:44;99840.38;;;6.38;99.90
2188;BME280;1100;52.014;8.540;2023-02-23T06:58:10;99844.69;;;6.39;100.00
2188;BME280;1100;52.014;8.540;2023-02-23T07:00:35;99847.81;;;6.41;100.00
2188;BME280;1100;52.014;8.540;2023-02-23T07:03:03;99851.38;;;6.41;99.97
2188;BME280;1100;52.014;8.540;2023-02-23T07:05:28;99844.28;;;6.40;100.00
2188;BME280;1100;52.014;8.540;2023-02-23T07:07:54;99845.84;;;6.41;100.00
2188;BME280;1100;52.014;8.540;2023-02-23T07:10:19;99850.97;;;6.43;100.00
2188;BME280;1100;52.014;8.540;2023-02-23T07:12:44;99857.63;;;6.45;100.00
2188;BME280;1100;52.014;8.540;2023-02-23T07:15:10;99856.81;;;6.45;100.00
2188;BME280;1100;52.014;8.540;2023-02-23T07:17:36;99849.75;;;6.44;100.00
2188;BME280;1100;52.014;8.540;2023-02-23T07:20:01;99861.53;;;6.48;100.00
2188;BME280;1100;52.014;8.540;2023-02-23T07:22:27;99861.09;;;6.50;100.00
2188;BME280;1100;52.014;8.540;2023-02-23T07:24:57;99861.91;;;6.50;100.00
2188;BME280;1100;52.014;8.540;2023-02-23T07:27:23;99869.38;;;6.50;100.00
2188;BME280;1100;52.014;8.540;2023-02-23T07:29:48;99864.66;;;6.50;100.00
2188;BME280;1100;52.014;8.540;2023-02-23T07:32:14;99867.78;;;6.52;100.00
2188;BME280;1100;52.014;8.540;2023-02-23T07:34:39;99870.91;;;6.54;100.00
2188;BME280;1100;52.014;8.540;2023-02-23T07:37:04;99863.81;;;6.53;100.00
2188;BME280;1100;52.014;8.540;2023-02-23T07:39:30;99869.72;;;6.55;100.00
2188;BME280;1100;52.014;8.540;2023-02-23T07:41:56;99869.31;;;6.57;100.00
2188;BME280;1100;52.014;8.540;2023-02-23T07:44:22;99869.22;;;6.60;100.00
2188;BME280;1100;52.014;8.540;2023-02-23T07:46:47;99869.22;;;6.60;100.00
2188;BME280;1100;52.014;8.540;2023-02-23T07:49:13;99872.38;;;6.63;100.00
2188;BME280;1100;52.014;8.540;2023-02-23T07:51:39;99873.91;;;6.64;100.00
2188;BME280;1100;52.014;8.540;2023-02-23T07:54:05;99879.03;;;6.65;100.00
2188;BME280;1100;52.014;8.540;2023-02-23T07:56:31;99877.06;;;6.66;100.00
2188;BME280;1100;52.014;8.540;2023-02-23T07:58:56;99880.97;;;6.68;100.00
2188;BME280;1100;52.014;8.540;2023-02-23T08:01:22;99882.53;;;6.69;100.00
2188;BME280;1100;52.014;8.540;2023-02-23T08:03:49;99877.81;;;6.70;100.00
2188;BME280;1100;52.014;8.540;2023-02-23T08:06:18;99887.66;;;6.71;100.00
2188;BME280;1100;52.014;8.540;2023-02-23T08:08:44;99886.44;;;6.72;100.00
2188;BME280;1100;52.014;8.540;2023-02-23T08:11:09;99883.25;;;6.73;100.00
2188;BME280;1100;52.014;8.540;2023-02-23T08:13:35;99885.59;;;6.75;100.00
2188;BME280;1100;52.014;8.540;2023-02-23T08:16:01;99887.19;;;6.76;100.00
2188;BME280;1100;52.014;8.540;2023-02-23T08:18:27;99892.63;;;6.80;100.00
2188;BME280;1100;52.014;8.540;2023-02-23T08:20:59;99886.69;;;6.81;100.00
2188;BME280;1100;52.014;8.540;2023-02-23T08:23:25;99894.56;;;6.83;100.00
2188;BME280;1100;52.014;8.540;2023-02-23T08:25:52;99890.63;;;6.84;100.00
2188;BME280;1100;52.014;8.540;2023-02-23T08:28:18;99889.81;;;6.83;100.00
2188;BME280;1100;52.014;8.540;2023-02-23T08:30:43;99892.97;;;6.85;100.00
2188;BME280;1100;52.014;8.540;2023-02-23T08:33:09;99899.66;;;6.84;100.00
2188;BME280;1100;52.014;8.540;2023-02-23T08:35:34;99899.66;;;6.84;100.00
2188;BME280;1100;52.014;8.540;2023-02-23T08:37:59;99902.09;;;6.82;100.00
2188;BME280;1100;52.014;8.540;2023-02-23T08:40:25;99897.31;;;6.83;100.00
2188;BME280;1100;52.014;8.540;2023-02-23T08:42:50;99898.53;;;6.82;100.00
2188;BME280;1100;52.014;8.540;2023-02-23T08:45:17;99902.84;;;6.83;100.00
2188;BME280;1100;52.014;8.540;2023-02-23T08:47:42;99906.81;;;6.82;100.00
2188;BME280;1100;52.014;8.540;2023-02-23T08:50:08;99909.59;;;6.82;100.00
2188;BME280;1100;52.014;8.540;2023-02-23T08:52:35;99904.47;;;6.80;100.00
2188;BME280;1100;52.014;8.540;2023-02-23T08:55:00;99905.25;;;6.81;100.00
2188;BME280;1100;52.014;8.540;2023-02-23T08:57:26;99903.69;;;6.80;100.00
2188;BME280;1100;52.014;8.540;2023-02-23T08:59:51;99911.97;;;6.80;100.00
2188;BME280;1100;52.014;8.540;2023-02-23T09:02:16;99919.84;;;6.81;100.00
2188;BME280;1100;52.014;8.540;2023-02-23T09:04:42;99918.66;;;6.82;100.00
2188;BME280;1100;52.014;8.540;2023-02-23T09:07:12;99915.47;;;6.84;100.00
2188;BME280;1100;52.014;8.540;2023-02-23T09:09:38;99913.13;;;6.82;100.00
2188;BME280;1100;52.014;8.540;2023-02-23T09:12:04;99920.22;;;6.83;100.00
2188;BME280;1100;52.014;8.540;2023-02-23T09:14:29;99913.91;;;6.83;100.00
2188;BME280;1100;52.014;8.540;2023-02-23T09:16:56;99928.50;;;6.83;100.00
2188;BME280;1100;52.014;8.540;2023-02-23T09:19:21;99921.78;;;6.84;100.00
2188;BME280;1100;52.014;8.540;2023-02-23T09:21:46;99922.94;;;6.87;100.00
2188;BME280;1100;52.014;8.540;2023-02-23T09:24:12;99920.09;;;6.91;100.00
2188;BME280;1100;52.014;8.540;2023-02-23T09:26:37;99917.72;;;6.93;100.00
2188;BME280;1100;52.014;8.540;2023-02-23T09:29:05;99933.09;;;6.94;100.00
2188;BME280;1100;52.014;8.540;2023-02-23T09:31:32;99927.13;;;6.95;100.00
2188;BME280;1100;52.014;8.540;2023-02-23T09:33:57;99928.72;;;6.96;100.00
2188;BME280;1100;52.014;8.540;2023-02-23T09:36:25;99925.88;;;7.00;100.00
2188;BME280;1100;52.014;8.540;2023-02-23T09:38:52;99921.56;;;6.99;100.00
2188;BME280;1100;52.014;8.540;2023-02-23T09:41:48;99931.81;;;6.98;100.00
2188;BME280;1100;52.014;8.540;2023-02-23T09:44:22;99931.41;;;7.00;100.00
2188;BME280;1100;52.014;8.540;2023-02-23T09:49:28;99929.84;;;6.99;100.00
2188;BME280;1100;52.014;8.540;2023-02-23T09:51:57;99935.34;;;7.03;100.00
2188;BME280;1100;52.014;8.540;2023-02-23T09:54:25;99940.03;;;7.06;100.00
2188;BME280;1100;52.014;8.540;2023-02-23T09:56:52;99942.78;;;7.06;100.00
2188;BME280;1100;52.014;8.540;2023-02-23T09:59:21;99948.31;;;7.06;100.00
2188;BME280;1100;52.014;8.540;2023-02-23T10:04:28;99949.91;;;7.03;100.00
2188;BME280;1100;52.014;8.540;2023-02-23T10:07:10;99941.28;;;7.01;100.00
2188;BME280;1100;52.014;8.540;2023-02-23T10:15:49;99947.56;;;7.02;100.00
2188;BME280;1100;52.014;8.540;2023-02-23T10:23:59;99957.66;;;6.88;100.00
2188;BME280;1100;52.014;8.540;2023-02-23T10:26:31;99959.72;;;6.80;100.00
2188;BME280;1100;52.014;8.540;2023-02-23T10:28:59;99964.56;;;6.72;100.00
2188;BME280;1100;52.014;8.540;2023-02-23T10:31:33;99963.84;;;6.68;100.00
2188;BME280;1100;52.014;8.540;2023-02-23T10:34:08;99965.44;;;6.66;100.00
2188;BME280;1100;52.014;8.540;2023-02-23T10:36:41;99967.06;;;6.63;100.00
2188;BME280;1100;52.014;8.540;2023-02-23T10:39:10;99966.28;;;6.63;100.00
2188;BME280;1100;52.014;8.540;2023-02-23T10:41:37;99964.34;;;6.59;100.00
2188;BME280;1100;52.014;8.540;2023-02-23T10:44:04;99969.50;;;6.57;100.00
2188;BME280;1100;52.014;8.540;2023-02-23T10:46:37;99966.38;;;6.55;100.00
2188;BME280;1100;52.014;8.540;2023-02-23T10:49:03;99966.41;;;6.52;100.00
2188;BME280;1100;52.014;8.540;2023-02-23T10:51:33;99966.44;;;6.48;100.00
2188;BME280;1100;52.014;8.540;2023-02-23T10:56:58;99967.28;;;6.45;100.00
2188;BME280;1100;52.014;8.540;2023-02-23T10:59:23;99964.94;;;6.43;100.00
2188;BME280;1100;52.014;8.540;2023-02-23T11:01:48;99967.69;;;6.43;100.00
2188;BME280;1100;52.014;8.540;2023-02-23T11:04:15;99957.06;;;6.42;100.00
2188;BME280;1100;52.014;8.540;2023-02-23T11:06:42;99965.34;;;6.42;100.00
2188;BME280;1100;52.014;8.540;2023-02-23T11:09:32;99963.78;;;6.41;100.00
2188;BME280;1100;52.014;8.540;2023-02-23T11:12:01;99960.22;;;6.40;100.00
2188;BME280;1100;52.014;8.540;2023-02-23T11:14:29;99961.81;;;6.41;100.00
2188;BME280;1100;52.014;8.540;2023-02-23T11:16:56;99957.47;;;6.40;100.00
2188;BME280;1100;52.014;8.540;2023-02-23T11:21:59;99968.06;;;6.45;100.00
2188;BME280;1100;52.014;8.540;2023-02-23T11:24:28;99956.19;;;6.48;100.00
2188;BME280;1100;52.014;8.540;2023-02-23T11:26:58;99960.09;;;6.51;100.00
2188;BME280;1100;52.014;8.540;2023-02-23T11:29:42;99961.28;;;6.54;100.00
2188;BME280;1100;52.014;8.540;2023-02-23T11:32:14;99955.31;;;6.55;100.00
2188;BME280;1100;52.014;8.540;2023-02-23T11:34:40;99958.44;;;6.57;100.00
2188;BME280;1100;52.014;8.540;2023-02-23T11:39:56;99953.66;;;6.62;100.00
2188;BME280;1100;52.014;8.540;2023-02-23T11:42:24;99949.25;;;6.68;100.00
2188;BME280;1100;52.014;8.540;2023-02-23T11:47:39;99947.16;;;6.76;100.00
2188;BME280;1100;52.014;8.540;2023-02-23T11:50:06;99947.88;;;6.80;100.00
2188;BME280;1100;52.014;8.540;2023-02-23T11:52:33;99954.16;;;6.84;100.00
2188;BME280;1100;52.014;8.540;2023-02-23T11:55:04;99944.25;;;6.87;100.00
2188;BME280;1100;52.014;8.540;2023-02-23T11:57:33;99943.78;;;6.92;100.00
2188;BME280;1100;52.014;8.540;2023-02-23T12:00:07;99941.78;;;6.92;100.00
2188;BME280;1100;52.014;8.540;2023-02-23T12:02:45;99938.25;;;6.92;100.00
2188;BME280;1100;52.014;8.540;2023-02-23T12:05:20;99941.03;;;6.92;100.00
2188;BME280;1100;52.014;8.540;2023-02-23T12:08:05;99940.28;;;6.88;100.00
2188;BME280;1100;52.014;8.540;2023-02-23T12:10:40;99931.66;;;6.85;100.00
2188;BME280;1100;52.014;8.540;2023-02-23T12:15:55;99935.16;;;6.86;100.00
2188;BME280;1100;52.014;8.540;2023-02-23T12:18:54;99931.22;;;6.87;100.00
2188;BME280;1100;52.014;8.540;2023-02-23T12:24:34;99924.03;;;6.93;100.00
2188;BME280;1100;52.014;8.540;2023-02-23T12:32:18;99924.78;;;6.94;100.00
2188;BME280;1100;52.014;8.540;2023-02-23T12:35:11;99918.50;;;6.93;100.00
2188;BME280;1100;52.014;8.540;2023-02-23T12:37:48;99921.69;;;6.92;100.00
2188;BME280;1100;52.014;8.540;2023-02-23T12:40:21;99928.75;;;6.93;100.00
2188;BME280;1100;52.014;8.540;2023-02-23T12:42:57;99926.41;;;6.91;100.00
2188;BME280;1100;52.014;8.540;2023-02-23T12:48:01;99927.97;;;6.92;100.00
2188;BME280;1100;52.014;8.540;2023-02-23T12:50:32;99926.41;;;6.91;100.00
2188;BME280;1100;52.014;8.540;2023-02-23T12:53:05;99931.91;;;6.95;100.00
2188;BME280;1100;52.014;8.540;2023-02-23T12:55:43;99937.78;;;6.97;100.00
2188;BME280;1100;52.014;8.540;2023-02-23T12:58:28;99931.41;;;7.00;100.00
2188;BME280;1100;52.014;8.540;2023-02-23T13:01:05;99930.22;;;7.01;100.00
2188;BME280;1100;52.014;8.540;2023-02-23T13:04:02;99928.66;;;7.00;100.00
2188;BME280;1100;52.014;8.540;2023-02-23T13:07:05;99931.47;;;6.96;100.00
2188;BME280;1100;52.014;8.540;2023-02-23T13:23:20;99935.13;;;6.90;100.00
2188;BME280;1100;52.014;8.540;2023-02-23T13:29:04;99933.63;;;6.85;100.00
2188;BME280;1100;52.014;8.540;2023-02-23T13:31:34;99936.78;;;6.83;100.00
2188;BME280;1100;52.014;8.540;2023-02-23T13:34:02;99933.66;;;6.81;100.00
2188;BME280;1100;52.014;8.540;2023-02-23T13:36:30;99926.56;;;6.80;100.00
2188;BME280;1100;52.014;8.540;2023-02-23T13:41:40;99930.56;;;6.79;100.00
2188;BME280;1100;52.014;8.540;2023-02-23T13:46:58;99931.28;;;6.83;100.00
2188;BME280;1100;52.014;8.540;2023-02-23T13:49:43;99936.78;;;6.83;100.00
2188;BME280;1100;52.014;8.540;2023-02-23T13:52:31;99935.25;;;6.82;100.00
2188;BME280;1100;52.014;8.540;2023-02-23T13:54:59;99944.78;;;6.78;100.00
2188;BME280;1100;52.014;8.540;2023-02-23T13:57:27;99940.91;;;6.71;100.00
2188;BME280;1100;52.014;8.540;2023-02-23T13:59:53;99938.56;;;6.70;100.00
2188;BME280;1100;52.014;8.540;2023-02-23T14:04:48;99940.22;;;6.64;100.00
2188;BME280;1100;52.014;8.540;2023-02-23T14:07:24;99937.84;;;6.62;100.00
2188;BME280;1100;52.014;8.540;2023-02-23T14:10:00;99950.91;;;6.62;100.00
2188;BME280;1100;52.014;8.540;2023-02-23T14:12:39;99949.81;;;6.55;100.00
2188;BME280;1100;52.014;8.540;2023-02-23T14:17:59;99946.72;;;6.50;100.00
2188;BME280;1100;52.014;8.540;2023-02-23T14:31:16;99954.94;;;6.22;100.00
2188;BME280;1100;52.014;8.540;2023-02-23T14:41:27;99962.06;;;6.19;100.00
2188;BME280;1100;52.014;8.540;2023-02-23T14:49:27;99952.19;;;6.22;100.00
2188;BME280;1100;52.014;8.540;2023-02-23T14:51:57;99956.50;;;6.23;100.00
2188;BME280;1100;52.014;8.540;2023-02-23T14:54:31;99950.56;;;6.25;100.00
2188;BME280;1100;52.014;8.540;2023-02-23T14:56:59;99954.94;;;6.22;100.00
2188;BME280;1100;52.014;8.540;2023-02-23T14:59:27;99953.75;;;6.23;100.00
2188;BME280;1100;52.014;8.540;2023-02-23T15:01:57;99957.69;;;6.22;100.00
2188;BME280;1100;52.014;8.540;2023-02-23T15:04:25;99958.94;;;6.17;100.00
2188;BME280;1100;52.014;8.540;2023-02-23T15:06:57;99966.44;;;6.17;100.00
2188;BME280;1100;52.014;8.540;2023-02-23T15:12:04;99964.47;;;6.17;100.00
2188;BME280;1100;52.014;8.540;2023-02-23T15:14:36;99971.19;;;6.16;100.00
2188;BME280;1100;52.014;8.540;2023-02-23T15:17:02;99962.91;;;6.16;100.00
2188;BME280;1100;52.014;8.540;2023-02-23T15:19:31;99966.06;;;6.15;100.00
2188;BME280;1100;52.014;8.540;2023-02-23T15:21:59;99972.41;;;6.12;100.00
2188;BME280;1100;52.014;8.540;2023-02-23T15:24:40;99961.81;;;6.06;100.00
2188;BME280;1100;52.014;8.540;2023-02-23T15:27:15;99973.25;;;6.01;100.00
2188;BME280;1100;52.014;8.540;2023-02-23T15:29:41;99976.09;;;5.97;100.00
2188;BME280;1100;52.014;8.540;2023-02-23T15:32:12;99974.91;;;5.95;100.00
2188;BME280;1100;52.014;8.540;2023-02-23T15:34:41;99980.06;;;5.93;100.00
2188;BME280;1100;52.014;8.540;2023-02-23T15:37:13;99976.94;;;5.91;100.00
2188;BME280;1100;52.014;8.540;2023-02-23T15:39:51;99982.06;;;5.89;100.00
2188;BME280;1100;52.014;8.540;2023-02-23T15:42:21;99982.53;;;5.83;100.00
2188;BME280;1100;52.014;8.540;2023-02-23T15:44:57;99988.47;;;5.82;100.00
2188;BME280;1100;52.014;8.540;2023-02-23T15:47:25;99979.78;;;5.80;100.00
2188;BME280;1100;52.014;8.540;2023-02-23T15:49:59;99982.16;;;5.78;100.00
2188;BME280;1100;52.014;8.540;2023-02-23T15:52:26;99979.06;;;5.76;100.00
2188;BME280;1100;52.014;8.540;2023-02-23T15:55:01;99977.47;;;5.74;100.00
2188;BME280;1100;52.014;8.540;2023-02-23T16:00:16;99966.09;;;5.72;100.00
2188;BME280;1100;52.014;8.540;2023-02-23T16:02:44;99975.91;;;5.73;100.00
2188;BME280;1100;52.014;8.540;2023-02-23T16:05:20;99967.22;;;5.75;100.00
2188;BME280;1100;52.014;8.540;2023-02-23T16:07:46;99964.88;;;5.73;100.00